Time;durP1;ratioP1;P1;durP2;ratioP2;P2;SDS_P1;SDS_P2;PMS_P1;PMS_P2;Temp;Humidity;BMP_temperature;BMP_pressure;BME280_temperature;BME280_humidity;BME280_pressure;Samples;Min_cycle;Max_cycle;Signal;HPM_P1;HPM_P2
2023/06/03 00:02:11;;;;;;;27.42;15.00;;;;;;;10.07;100.00;101955.31;5099266;28;20016;-46
2023/06/03 00:04:41;;;;;;;22.88;13.93;;;;;;;10.12;100.00;101959.91;5099177;28;20402;-45
2023/06/03 00:07:07;;;;;;;23.95;13.82;;;;;;;10.15;100.00;101959.19;5098837;28;20036;-46
2023/06/03 00:09:32;;;;;;;23.75;14.18;;;;;;;10.06;100.00;101962.19;5099104;28;20099;-45
2023/06/03 00:11:57;;;;;;;23.85;14.20;;;;;;;9.98;100.00;101955.75;5099465;28;20365;-44
2023/06/03 00:14:23;;;;;;;25.92;14.73;;;;;;;9.94;100.00;101951.25;5098613;28;20139;-45
2023/06/03 00:16:48;;;;;;;24.13;13.80;;;;;;;9.95;100.00;101955.59;5099131;28;20031;-45
2023/06/03 00:19:14;;;;;;;25.67;14.00;;;;;;;9.87;100.00;101952.66;5099278;28;20055;-45
2023/06/03 00:21:49;;;;;;;20.85;13.75;;;;;;;9.86;100.00;101954.34;5098595;28;20039;-45
2023/06/03 00:24:19;;;;;;;25.60;13.27;;;;;;;9.88;100.00;101955.28;5099034;28;20586;-45
2023/06/03 00:26:45;;;;;;;22.70;13.23;;;;;;;9.85;100.00;101955.16;5099530;28;20086;-47
2023/06/03 00:29:11;;;;;;;23.42;13.32;;;;;;;9.78;100.00;101957.34;5098756;28;20135;-49
2023/06/03 00:31:36;;;;;;;23.80;13.82;;;;;;;9.81;100.00;101950.66;5098669;28;20056;-45
2023/06/03 00:34:02;;;;;;;23.48;13.15;;;;;;;9.78;100.00;101963.38;5099096;28;20486;-46
2023/06/03 00:36:27;;;;;;;21.45;12.68;;;;;;;9.80;100.00;101959.19;5098543;28;20028;-45
2023/06/03 00:38:52;;;;;;;20.88;12.50;;;;;;;9.69;100.00;101962.91;5099115;28;20051;-45
2023/06/03 00:41:19;;;;;;;23.20;12.73;;;;;;;9.65;100.00;101954.13;5098966;28;20379;-46
2023/06/03 00:43:44;;;;;;;24.60;13.10;;;;;;;9.61;100.00;101953.91;5098832;28;20027;-46
2023/06/03 00:46:10;;;;;;;21.05;13.43;;;;;;;9.62;100.00;101961.72;5098977;28;20024;-45
2023/06/03 00:48:39;;;;;;;20.10;12.75;;;;;;;9.59;100.00;101955.50;5098278;28;20467;-46
2023/06/03 00:51:06;;;;;;;18.75;12.05;;;;;;;9.51;100.00;101958.56;5099033;28;20016;-47
2023/06/03 00:53:31;;;;;;;23.10;13.00;;;;;;;9.50;100.00;101953.34;5095688;28;20028;-47
2023/06/03 00:55:57;;;;;;;16.73;12.57;;;;;;;9.47;100.00;101951.50;5095134;28;20086;-46
2023/06/03 00:58:22;;;;;;;20.50;12.65;;;;;;;9.48;100.00;101950.69;5095324;28;20040;-45
2023/06/03 01:00:48;;;;;;;25.58;14.00;;;;;;;9.44;100.00;101951.34;5095678;28;20103;-45
2023/06/03 01:03:14;;;;;;;21.42;12.32;;;;;;;9.44;100.00;101953.91;5095059;28;20051;-46
2023/06/03 01:05:42;;;;;;;19.27;13.70;;;;;;;9.43;100.00;101949.56;5095574;28;20024;-48
2023/06/03 01:08:43;;;;;;;21.98;12.93;;;;;;;9.40;100.00;101949.44;5095808;28;20028;-45
2023/06/03 01:11:20;;;;;;;21.35;12.75;;;;;;;9.35;100.00;101954.31;5094948;28;20414;-45
2023/06/03 01:13:55;;;;;;;19.88;12.52;;;;;;;9.36;100.00;101952.63;5095289;28;20016;-46
2023/06/03 01:16:23;;;;;;;24.63;12.73;;;;;;;9.32;100.00;101945.53;5095014;28;20541;-46
2023/06/03 01:18:50;;;;;;;20.17;13.05;;;;;;;9.33;100.00;101955.91;5095096;28;20028;-45
2023/06/03 01:21:16;;;;;;;19.52;12.32;;;;;;;9.34;100.00;101947.41;5094709;28;20040;-45
2023/06/03 01:23:45;;;;;;;19.65;12.68;;;;;;;9.28;100.00;101966.78;5095367;28;20020;-46
2023/06/03 01:26:14;;;;;;;24.77;12.82;;;;;;;9.32;100.00;101959.31;5095081;28;20020;-45
2023/06/03 01:28:39;;;;;;;24.05;12.70;;;;;;;9.26;100.00;101955.50;5095055;28;20032;-44
2023/06/03 01:31:06;;;;;;;19.67;12.82;;;;;;;9.29;100.00;101956.56;5094738;28;20024;-45
2023/06/03 01:33:33;;;;;;;19.38;12.70;;;;;;;9.26;100.00;101950.38;5094908;28;20028;-45
2023/06/03 01:36:01;;;;;;;17.02;12.43;;;;;;;9.26;100.00;101955.50;5095017;28;20511;-46
2023/06/03 01:38:27;;;;;;;18.98;12.63;;;;;;;9.20;100.00;101950.94;5094258;28;20106;-47
2023/06/03 01:40:53;;;;;;;21.30;12.43;;;;;;;9.16;100.00;101955.03;5094631;28;20431;-46
2023/06/03 01:43:18;;;;;;;18.08;12.23;;;;;;;9.21;100.00;101956.16;5094772;28;20062;-48
2023/06/03 01:45:44;;;;;;;18.65;11.77;;;;;;;9.15;100.00;101945.53;5094470;28;20020;-44
2023/06/03 01:48:11;;;;;;;17.27;11.88;;;;;;;9.03;100.00;101955.19;5094763;28;20179;-45
2023/06/03 01:50:43;;;;;;;18.08;12.48;;;;;;;8.98;100.00;101959.19;5094563;28;20028;-45
2023/06/03 01:53:09;;;;;;;20.75;12.60;;;;;;;8.88;100.00;101961.28;5094117;28;20490;-46
2023/06/03 01:55:34;;;;;;;19.92;12.00;;;;;;;9.01;100.00;101967.06;5094297;28;20020;-44
2023/06/03 01:58:00;;;;;;;20.08;13.48;;;;;;;9.14;100.00;101966.03;5094748;28;20414;-45
2023/06/03 02:00:25;;;;;;;19.50;13.15;;;;;;;9.17;100.00;101967.09;5093835;28;20121;-45
2023/06/03 02:02:50;;;;;;;20.10;13.40;;;;;;;9.17;100.00;101956.81;5094201;28;20601;-46
2023/06/03 02:05:16;;;;;;;18.92;13.05;;;;;;;9.18;100.00;101958.59;5093928;28;20036;-44
2023/06/03 02:07:41;;;;;;;21.10;13.02;;;;;;;9.23;100.00;101954.56;5093778;28;20091;-47
2023/06/03 02:10:07;;;;;;;20.83;12.57;;;;;;;9.21;100.00;101953.59;5094103;28;20190;-45
2023/06/03 02:12:32;;;;;;;17.83;12.40;;;;;;;9.22;100.00;101957.94;5094200;28;20077;-44
2023/06/03 02:14:57;;;;;;;19.25;12.32;;;;;;;9.25;100.00;101944.34;5093848;28;20553;-46
2023/06/03 02:17:26;;;;;;;19.13;12.00;;;;;;;9.24;100.00;101942.56;5093611;28;20028;-47
2023/06/03 02:19:55;;;;;;;17.27;13.18;;;;;;;9.23;100.00;101945.94;5093980;28;20441;-48
2023/06/03 02:22:20;;;;;;;19.30;12.10;;;;;;;9.26;100.00;101950.38;5093157;28;20024;-47
2023/06/03 02:24:47;;;;;;;17.63;12.02;;;;;;;9.23;100.00;101952.00;5094315;28;20047;-46
2023/06/03 02:27:15;;;;;;;22.80;12.52;;;;;;;9.23;100.00;101946.84;5093769;28;20024;-46
2023/06/03 02:29:40;;;;;;;;;;;;;;;9.31;100.00;101946.34;5094262;28;20032;-45
2023/06/03 02:32:06;;;;;;;17.65;12.45;;;;;;;9.26;100.00;101947.78;5094032;28;19912;-46
2023/06/03 02:34:32;;;;;;;16.63;12.07;;;;;;;9.28;100.00;101946.19;5093154;28;20020;-46
2023/06/03 02:36:57;;;;;;;18.60;12.70;;;;;;;9.26;100.00;101948.69;5093439;28;20475;-48
2023/06/03 02:39:22;;;;;;;16.58;11.30;;;;;;;9.25;100.00;101959.78;5093732;28;20031;-44
2023/06/03 02:41:48;;;;;;;19.38;11.50;;;;;;;9.25;100.00;101944.34;5093407;28;20077;-45
2023/06/03 02:44:13;;;;;;;19.30;12.13;;;;;;;9.16;100.00;101951.59;5093668;28;20054;-47
2023/06/03 02:46:38;;;;;;;14.23;11.20;;;;;;;9.25;100.00;101946.91;5093477;28;20376;-47
2023/06/03 02:49:05;;;;;;;17.15;10.65;;;;;;;9.16;100.00;101949.88;5093103;28;20024;-48
2023/06/03 02:51:31;;;;;;;16.03;10.47;;;;;;;9.18;100.00;101952.53;5093158;28;20047;-47
2023/06/03 02:53:56;;;;;;;17.13;11.48;;;;;;;9.13;100.00;101947.16;5093549;28;20498;-45
2023/06/03 02:56:22;;;;;;;15.45;10.98;;;;;;;9.12;100.00;101952.22;5092849;28;20036;-45
2023/06/03 02:58:51;;;;;;;15.15;10.48;;;;;;;9.02;100.00;101953.41;5093342;28;20077;-48
2023/06/03 03:01:18;;;;;;;15.52;10.45;;;;;;;9.03;100.00;101952.63;5093235;28;20020;-45
2023/06/03 03:03:44;;;;;;;14.10;9.57;;;;;;;8.94;100.00;101953.00;5092973;28;20028;-47
2023/06/03 03:06:14;;;;;;;16.75;9.95;;;;;;;8.98;100.00;101954.06;5092976;28;20421;-45
2023/06/03 03:08:40;;;;;;;14.23;9.95;;;;;;;8.97;100.00;101952.28;5093173;28;20103;-45
2023/06/03 03:11:06;;;;;;;19.60;9.73;;;;;;;8.91;100.00;101952.84;5092962;28;20048;-47
2023/06/03 03:13:31;;;;;;;14.10;9.80;;;;;;;8.81;100.00;101954.03;5092623;28;20542;-48
2023/06/03 03:15:57;;;;;;;17.35;10.50;;;;;;;8.84;100.00;101946.47;5092670;28;20063;-49
2023/06/03 03:18:22;;;;;;;15.57;10.68;;;;;;;8.84;100.00;101950.72;5092728;28;20020;-49
2023/06/03 03:20:47;;;;;;;16.60;10.07;;;;;;;8.85;100.00;101952.50;5092742;28;20052;-45
2023/06/03 03:23:13;;;;;;;14.57;10.98;;;;;;;8.88;100.00;101953.56;5093333;28;20061;-51
2023/06/03 03:25:40;;;;;;;15.73;9.55;;;;;;;8.76;100.00;101958.03;5092263;28;20478;-48
2023/06/03 03:28:06;;;;;;;15.80;10.73;;;;;;;8.74;100.00;101959.66;5093093;28;20032;-48
2023/06/03 03:30:31;;;;;;;15.20;10.15;;;;;;;8.65;100.00;101961.69;5092237;28;20028;-48
2023/06/03 03:32:58;;;;;;;12.50;10.02;;;;;;;8.64;100.00;101962.50;5092874;28;20027;-47
2023/06/03 03:35:24;;;;;;;14.88;9.48;;;;;;;8.57;100.00;101962.16;5092514;28;20024;-49
2023/06/03 03:38:02;;;;;;;16.50;10.02;;;;;;;8.55;100.00;101963.75;5092863;28;20107;-51
2023/06/03 03:40:29;;;;;;;12.35;8.77;;;;;;;8.48;100.00;101964.22;5092577;28;20027;-49
2023/06/03 03:42:56;;;;;;;14.60;10.25;;;;;;;8.46;100.00;101963.25;5092917;28;20047;-48
2023/06/03 03:45:25;;;;;;;15.27;10.80;;;;;;;8.45;100.00;101965.69;5092146;28;20020;-47
2023/06/03 03:47:52;;;;;;;13.90;9.73;;;;;;;8.47;100.00;101965.00;5092554;28;20441;-49
2023/06/03 03:50:39;;;;;;;17.48;10.60;;;;;;;8.49;100.00;101965.09;5092791;28;20028;-49
2023/06/03 03:53:07;;;;;;;14.30;10.18;;;;;;;8.45;100.00;101966.56;5092317;28;20384;-48
2023/06/03 03:55:39;;;;;;;15.45;10.00;;;;;;;8.47;100.00;101975.28;5092192;28;20028;-48
2023/06/03 03:58:15;;;;;;;15.90;10.90;;;;;;;8.44;100.00;101974.19;5092752;28;20028;-45
2023/06/03 04:00:41;;;;;;;17.30;10.68;;;;;;;8.49;100.00;101976.25;5091968;28;20036;-50
2023/06/03 04:03:09;;;;;;;18.80;11.18;;;;;;;8.52;100.00;101972.97;5092932;28;20135;-46
2023/06/03 04:05:36;;;;;;;17.85;11.00;;;;;;;8.52;100.00;101973.88;5091971;28;20661;-49
2023/06/03 04:08:03;;;;;;;17.75;10.45;;;;;;;8.65;100.00;101971.97;5092436;28;20028;-47
2023/06/03 04:10:28;;;;;;;15.63;11.23;;;;;;;8.65;100.00;101969.38;5092329;28;20150;-49
2023/06/03 04:12:53;;;;;;;18.45;10.93;;;;;;;8.63;100.00;101971.88;5092045;28;20032;-49
2023/06/03 04:15:24;;;;;;;22.60;11.23;;;;;;;8.66;100.00;101972.06;5092243;28;20031;-49
2023/06/03 04:17:50;;;;;;;17.10;11.52;;;;;;;8.72;100.00;101971.50;5092792;28;20032;-50
2023/06/03 04:20:25;;;;;;;17.38;10.85;;;;;;;8.77;100.00;101972.66;5091799;28;20453;-45
2023/06/03 04:22:51;;;;;;;17.15;12.40;;;;;;;8.83;100.00;101975.56;5092438;28;20040;-49
2023/06/03 04:25:18;;;;;;;15.40;11.77;;;;;;;8.90;100.00;101980.22;5092145;28;20028;-49
2023/06/03 04:27:43;;;;;;;16.10;11.93;;;;;;;8.94;100.00;101982.97;5093495;28;20028;-49
2023/06/03 04:30:09;;;;;;;15.43;10.68;;;;;;;9.03;100.00;101980.91;5096251;28;20039;-48
2023/06/03 04:32:34;;;;;;;16.02;10.45;;;;;;;9.12;100.00;101978.81;5095900;28;20039;-48
2023/06/03 04:34:59;;;;;;;17.92;11.57;;;;;;;9.13;100.00;101983.16;5095744;28;20043;-47
2023/06/03 04:37:26;;;;;;;14.82;10.32;;;;;;;9.21;100.00;101984.44;5095663;28;20459;-48
2023/06/03 04:39:51;;;;;;;18.60;10.95;;;;;;;9.30;100.00;101975.47;5096204;28;20034;-49
2023/06/03 04:42:17;;;;;;;15.32;9.75;;;;;;;9.38;100.00;101981.91;5095481;28;20103;-49
2023/06/03 04:44:42;;;;;;;11.98;9.25;;;;;;;9.47;100.00;101984.06;5096035;28;20374;-49
2023/06/03 04:47:11;;;;;;;15.10;8.00;;;;;;;9.61;100.00;101984.81;5096205;28;20075;-49
2023/06/03 04:49:38;;;;;;;14.82;7.82;;;;;;;9.70;100.00;101985.28;5094936;28;20055;-49
2023/06/03 04:52:05;;;;;;;14.27;7.60;;;;;;;9.85;100.00;101985.16;5095963;28;20046;-51
2023/06/03 04:54:30;;;;;;;13.25;8.48;;;;;;;9.94;100.00;101982.16;5095608;28;20043;-49
2023/06/03 04:56:55;;;;;;;12.65;7.65;;;;;;;10.05;100.00;101978.44;5095200;28;20037;-48
2023/06/03 04:59:21;;;;;;;10.60;7.97;;;;;;;10.13;100.00;101984.84;5095552;28;20112;-45
2023/06/03 05:01:48;;;;;;;11.77;6.63;;;;;;;10.28;100.00;101981.28;5095470;28;20541;-47
2023/06/03 05:04:19;;;;;;;11.00;6.78;;;;;;;10.31;100.00;101981.41;5095709;28;20099;-47
2023/06/03 05:06:48;;;;;;;10.65;6.18;;;;;;;10.42;100.00;101988.03;5095813;28;20486;-51
2023/06/03 05:09:14;;;;;;;11.38;6.10;;;;;;;10.53;100.00;101989.44;5095031;28;20424;-51
2023/06/03 05:11:40;;;;;;;9.68;5.93;;;;;;;10.64;100.00;101991.59;5095163;28;20023;-49
2023/06/03 05:14:06;;;;;;;10.20;5.85;;;;;;;10.72;100.00;101990.28;5095589;28;20023;-49
2023/06/03 05:16:32;;;;;;;8.90;5.57;;;;;;;10.82;100.00;101991.59;5094631;28;20102;-49
2023/06/03 05:18:57;;;;;;;9.02;5.93;;;;;;;10.90;99.78;101987.69;5095079;28;20111;-50
2023/06/03 05:21:22;;;;;;;10.02;5.32;;;;;;;10.99;97.15;101985.53;5095001;28;20375;-50
2023/06/03 05:23:47;;;;;;;13.75;5.20;;;;;;;11.07;95.86;101980.72;5094830;28;20051;-49
2023/06/03 05:26:13;;;;;;;13.18;4.97;;;;;;;11.19;91.89;101994.22;5095253;28;20024;-46
2023/06/03 05:28:38;;;;;;;9.18;5.13;;;;;;;11.27;91.04;101994.56;5095019;28;20028;-48
2023/06/03 05:31:03;;;;;;;7.88;4.45;;;;;;;11.34;90.44;101991.41;5094592;28;20525;-48
2023/06/03 05:33:30;;;;;;;8.75;4.47;;;;;;;11.43;89.60;101992.66;5094497;28;20074;-49
2023/06/03 05:35:55;;;;;;;9.13;4.90;;;;;;;11.50;89.30;101992.09;5094986;28;20085;-50
2023/06/03 05:38:22;;;;;;;8.68;5.30;;;;;;;11.58;88.69;101989.84;5094208;28;20027;-48
2023/06/03 05:40:48;;;;;;;8.88;4.57;;;;;;;11.65;88.46;101994.47;5094217;28;20031;-50
2023/06/03 05:43:15;;;;;;;8.85;5.18;;;;;;;11.75;86.57;101991.47;5095059;28;20024;-50
2023/06/03 05:45:41;;;;;;;9.10;4.70;;;;;;;11.81;88.65;101991.75;5094383;28;20032;-49
2023/06/03 05:48:06;;;;;;;9.52;4.82;;;;;;;11.89;87.63;101983.44;5094660;28;20020;-46
2023/06/03 05:50:36;;;;;;;8.88;4.55;;;;;;;11.98;86.37;101986.44;5094674;28;20077;-48
2023/06/03 05:53:01;;;;;;;8.80;4.32;;;;;;;12.02;84.58;101980.59;5093802;28;20115;-50
2023/06/03 05:55:26;;;;;;;11.40;4.40;;;;;;;12.10;83.00;101989.53;5094819;28;20107;-50
2023/06/03 05:57:52;;;;;;;8.35;4.30;;;;;;;12.22;85.03;101993.47;5094607;28;20480;-47
2023/06/03 06:00:17;;;;;;;6.50;4.40;;;;;;;12.28;83.47;101989.41;5093635;28;20093;-48
2023/06/03 06:02:42;;;;;;;8.18;4.85;;;;;;;12.37;81.29;101991.50;5094540;28;20021;-50
2023/06/03 06:05:08;;;;;;;12.10;4.68;;;;;;;12.48;81.63;101992.78;5093893;28;20476;-50
2023/06/03 06:07:33;;;;;;;11.23;4.63;;;;;;;12.59;82.24;101987.16;5094054;28;20123;-50
2023/06/03 06:09:58;;;;;;;10.43;4.70;;;;;;;12.65;79.80;101993.50;5094629;28;20016;-46
2023/06/03 06:12:24;;;;;;;9.43;4.40;;;;;;;12.74;79.17;101989.50;5093554;28;20058;-49
2023/06/03 06:14:49;;;;;;;10.13;4.97;;;;;;;12.80;78.23;101994.91;5094167;28;20032;-50
2023/06/03 06:17:16;;;;;;;8.90;4.43;;;;;;;12.90;78.45;101993.53;5094156;28;20114;-49
2023/06/03 06:19:41;;;;;;;6.68;4.10;;;;;;;12.99;77.44;101992.19;5093401;28;20047;-50
2023/06/03 06:22:07;;;;;;;7.63;4.43;;;;;;;13.10;79.01;101991.72;5093967;28;20023;-48
2023/06/03 06:24:32;;;;;;;12.07;4.40;;;;;;;13.25;78.62;101999.19;5093792;28;20324;-51
2023/06/03 06:26:58;;;;;;;9.65;4.75;;;;;;;13.37;76.90;101999.66;5093478;28;20027;-47
2023/06/03 06:29:23;;;;;;;9.38;4.10;;;;;;;13.41;73.71;101995.47;5093468;28;20028;-49
2023/06/03 06:31:51;;;;;;;8.15;4.30;;;;;;;13.60;76.30;102015.16;5093982;28;20036;-50
2023/06/03 06:34:19;;;;;;;7.80;3.75;;;;;;;13.63;72.70;102012.66;5093235;28;20039;-48
2023/06/03 06:36:52;;;;;;;7.18;3.38;;;;;;;13.81;71.83;102012.44;5093825;28;20021;-46
2023/06/03 06:39:32;;;;;;;7.20;3.60;;;;;;;13.79;70.98;102012.38;5093821;28;20024;-49
2023/06/03 06:42:21;;;;;;;9.15;4.22;;;;;;;13.91;72.67;102004.16;5093167;28;20080;-47
2023/06/03 06:44:48;;;;;;;8.88;3.88;;;;;;;13.98;68.44;102002.66;5093612;28;20059;-48
2023/06/03 06:47:21;;;;;;;9.60;4.05;;;;;;;14.14;71.10;102007.53;5093670;28;20032;-49
2023/06/03 06:49:48;;;;;;;6.22;3.10;;;;;;;14.19;66.38;101999.91;5093737;28;20098;-50
2023/06/03 06:52:14;;;;;;;7.63;3.50;;;;;;;14.41;67.96;102001.50;5092598;28;20497;-44
2023/06/03 06:54:40;;;;;;;8.00;3.25;;;;;;;14.49;65.09;102005.19;5092782;28;20069;-50
2023/06/03 06:57:06;;;;;;;7.72;3.20;;;;;;;14.60;64.23;102002.97;5093233;28;20112;-50
2023/06/03 06:59:32;;;;;;;8.57;3.03;;;;;;;14.64;62.83;101999.66;5093290;28;20098;-49
2023/06/03 07:01:57;;;;;;;7.60;3.10;;;;;;;14.72;61.94;102007.69;5092897;28;20028;-50
2023/06/03 07:04:23;;;;;;;7.05;3.00;;;;;;;14.82;62.04;102007.13;5092787;28;20020;-50
2023/06/03 07:06:48;;;;;;;6.35;3.13;;;;;;;14.87;61.62;102008.97;5093509;28;20023;-50
2023/06/03 07:09:13;;;;;;;6.97;3.00;;;;;;;15.02;61.67;102006.84;5092652;28;20031;-48
2023/06/03 07:11:46;;;;;;;7.03;2.85;;;;;;;15.11;56.09;102008.84;5092766;28;20062;-46
2023/06/03 07:14:13;;;;;;;7.32;2.80;;;;;;;15.13;54.17;102008.06;5093279;28;20112;-49
2023/06/03 07:16:41;;;;;;;6.63;2.50;;;;;;;15.21;55.25;102002.19;5092569;28;20043;-49
2023/06/03 07:19:06;;;;;;;9.02;2.97;;;;;;;15.41;56.17;102000.19;5092885;28;20032;-50
2023/06/03 07:21:33;;;;;;;6.57;3.00;;;;;;;15.60;58.79;101998.97;5092908;28;20028;-47
2023/06/03 07:23:58;;;;;;;8.55;2.80;;;;;;;15.64;55.00;101993.00;5092470;28;20016;-47
2023/06/03 07:26:28;;;;;;;6.47;2.55;;;;;;;15.84;56.05;101996.19;5092778;28;20035;-49
2023/06/03 07:28:57;;;;;;;5.97;2.22;;;;;;;15.84;52.89;101997.88;5093267;28;20095;-50
2023/06/03 07:31:23;;;;;;;4.07;2.10;;;;;;;15.91;49.25;102005.03;5092104;28;20052;-49
2023/06/03 07:33:51;;;;;;;7.97;2.40;;;;;;;16.01;50.43;102003.53;5093203;28;20056;-49
2023/06/03 07:36:19;;;;;;;8.25;2.38;;;;;;;16.10;49.32;102017.66;5092606;28;20060;-48
2023/06/03 07:39:14;;;;;;;5.15;2.42;;;;;;;16.18;49.54;102010.03;5092275;28;20027;-50
2023/06/03 07:41:52;;;;;;;6.00;2.17;;;;;;;16.29;50.16;102007.69;5092567;28;20510;-49
2023/06/03 07:44:39;;;;;;;8.35;2.20;;;;;;;16.38;49.44;102009.66;5092193;28;20038;-48
2023/06/03 07:47:04;;;;;;;8.02;2.17;;;;;;;16.47;45.89;102002.06;5092795;28;20028;-51
2023/06/03 07:49:30;;;;;;;7.65;2.30;;;;;;;16.49;45.17;102002.09;5092616;28;20073;-50
2023/06/03 07:51:55;;;;;;;7.50;2.05;;;;;;;16.67;46.58;102007.75;5092477;28;20023;-45
2023/06/03 07:54:20;;;;;;;5.60;1.92;;;;;;;16.88;46.96;102001.25;5092224;28;20030;-50
2023/06/03 07:56:46;;;;;;;6.70;2.05;;;;;;;16.96;44.74;102010.13;5092824;28;20036;-50
2023/06/03 07:59:13;;;;;;;5.30;1.92;;;;;;;16.97;43.33;102014.50;5092023;28;20075;-50
2023/06/03 08:01:39;;;;;;;4.10;1.92;;;;;;;17.20;45.07;102019.34;5092530;28;20024;-45
2023/06/03 08:04:26;;;;;;;5.70;2.05;;;;;;;17.28;45.09;102007.34;5096382;28;20021;-48
2023/06/03 08:06:52;;;;;;;5.25;2.00;;;;;;;17.23;41.38;102017.66;5096033;28;20429;-50
2023/06/03 08:09:33;;;;;;;5.32;1.80;;;;;;;17.32;42.46;102014.38;5096569;28;20566;-48
2023/06/03 08:12:01;;;;;;;4.90;1.60;;;;;;;17.36;39.95;102015.31;5096475;28;20028;-50
2023/06/03 08:14:29;;;;;;;;;;;;;;;17.49;44.77;102021.66;5096566;28;20020;-46
2023/06/03 08:16:56;;;;;;;4.45;1.80;;;;;;;17.54;40.22;102015.66;5096453;28;20244;-50
2023/06/03 08:19:21;;;;;;;7.85;2.00;;;;;;;17.65;39.76;102023.72;5095477;28;20544;-45
2023/06/03 08:21:48;;;;;;;6.25;1.60;;;;;;;17.70;38.27;102013.34;5096496;28;20111;-49
2023/06/03 08:24:13;;;;;;;5.40;1.77;;;;;;;17.66;38.89;102012.41;5096612;28;20048;-48
2023/06/03 08:26:43;;;;;;;5.97;1.55;;;;;;;17.82;38.74;102011.00;5095603;28;20062;-48
2023/06/03 08:29:09;;;;;;;4.93;1.70;;;;;;;17.99;39.03;102003.50;5096032;28;20468;-50
2023/06/03 08:31:35;;;;;;;10.50;1.90;;;;;;;17.99;35.59;102019.13;5096282;28;20097;-49
2023/06/03 08:34:02;;;;;;;3.40;1.50;;;;;;;18.18;37.46;102009.00;5095860;28;20050;-50
2023/06/03 08:36:28;;;;;;;3.72;1.40;;;;;;;18.19;36.34;102008.16;5095918;28;20107;-49
2023/06/03 08:38:53;;;;;;;7.45;1.58;;;;;;;18.24;36.41;102009.13;5096387;28;20056;-50
2023/06/03 08:41:18;;;;;;;3.83;1.38;;;;;;;18.25;36.13;102013.50;5095051;28;20028;-49
2023/06/03 08:43:50;;;;;;;5.63;1.45;;;;;;;18.27;36.32;102009.19;5096031;28;20031;-47
2023/06/03 08:46:22;;;;;;;4.90;1.50;;;;;;;18.47;36.56;102011.22;5095717;28;20353;-50
2023/06/03 08:49:07;;;;;;;3.95;1.70;;;;;;;18.53;37.26;102011.34;5095446;28;20028;-48
2023/06/03 08:51:41;;;;;;;3.60;1.50;;;;;;;18.66;36.12;101997.59;5095932;28;20024;-50
2023/06/03 08:54:13;;;;;;;5.88;1.40;;;;;;;18.71;36.30;102001.16;5095612;28;20024;-50
2023/06/03 08:56:45;;;;;;;6.30;1.45;;;;;;;18.69;34.67;102008.06;5095560;28;20034;-48
2023/06/03 08:59:19;;;;;;;3.88;1.30;;;;;;;18.81;36.66;102010.00;5095848;28;20024;-51
2023/06/03 09:01:46;;;;;;;6.95;1.60;;;;;;;18.76;35.41;102017.75;5095116;28;20446;-49
2023/06/03 09:04:12;;;;;;;5.00;1.70;;;;;;;18.88;36.20;102009.22;5095511;28;20106;-49
2023/06/03 09:06:43;;;;;;;4.15;1.75;;;;;;;18.97;36.15;102011.13;5095363;28;20028;-49
2023/06/03 09:09:10;;;;;;;3.45;1.60;;;;;;;19.02;35.47;102006.81;5095351;28;20028;-45
2023/06/03 09:11:38;;;;;;;3.58;1.70;;;;;;;19.05;34.57;102006.84;5095353;28;20464;-50
2023/06/03 09:14:04;;;;;;;7.78;1.50;;;;;;;19.15;34.15;102020.06;5094318;28;20487;-50
2023/06/03 09:16:32;;;;;;;9.93;2.00;;;;;;;19.12;34.71;102012.16;5094412;28;20082;-48
2023/06/03 09:18:57;;;;;;;5.20;1.70;;;;;;;19.11;33.85;102010.41;5095169;28;20456;-45
2023/06/03 09:21:24;;;;;;;5.35;1.50;;;;;;;19.11;34.90;102013.00;5095309;28;20088;-45
2023/06/03 09:23:51;;;;;;;6.68;1.73;;;;;;;19.21;34.33;102018.41;5094791;28;20028;-46
2023/06/03 09:26:17;;;;;;;4.25;1.60;;;;;;;19.31;34.72;101998.47;5094870;28;20388;-49
2023/06/03 09:28:42;;;;;;;3.75;1.20;;;;;;;19.32;34.64;102010.66;5095436;28;20024;-49
2023/06/03 09:31:07;;;;;;;5.50;1.48;;;;;;;19.47;34.00;102012.59;5094382;28;20020;-50
2023/06/03 09:33:35;;;;;;;4.93;1.60;;;;;;;19.41;32.80;102010.78;5094692;28;20072;-50
2023/06/03 09:36:15;;;;;;;4.93;1.73;;;;;;;19.51;33.95;101995.19;5095146;28;20081;-50
2023/06/03 09:38:56;;;;;;;5.70;1.38;;;;;;;19.81;33.88;101994.63;5094944;28;20024;-50
2023/06/03 09:41:23;;;;;;;6.75;1.50;;;;;;;19.99;31.97;102007.03;5094714;28;20020;-49
2023/06/03 09:44:01;;;;;;;10.32;1.50;;;;;;;20.12;31.92;101996.69;5094528;28;20024;-48
2023/06/03 09:46:28;;;;;;;;;;;;;;;20.31;34.79;101995.06;5094723;28;20016;-48
2023/06/03 09:48:53;;;;;;;6.53;1.33;;;;;;;20.29;31.58;102002.06;5094970;28;19919;-49
2023/06/03 09:51:19;;;;;;;6.97;1.50;;;;;;;20.43;31.04;101994.31;5094056;28;20016;-50
2023/06/03 09:53:44;;;;;;;5.43;1.42;;;;;;;20.46;30.04;101999.56;5094811;28;20081;-49
2023/06/03 09:56:23;;;;;;;5.45;1.35;;;;;;;20.64;31.22;101999.66;5094798;28;20466;-49
2023/06/03 09:58:51;;;;;;;4.28;1.30;;;;;;;21.06;28.24;101997.31;5093838;28;20020;-50
2023/06/03 10:01:28;;;;;;;5.07;1.30;;;;;;;21.13;29.02;101998.22;5094542;28;20035;-47
2023/06/03 10:03:58;;;;;;;3.38;0.98;;;;;;;21.09;27.06;102002.56;5094652;28;20024;-48
2023/06/03 10:06:23;;;;;;;3.13;1.13;;;;;;;21.46;28.31;102000.06;5093513;28;20426;-49
2023/06/03 10:08:49;;;;;;;4.78;1.40;;;;;;;21.95;27.91;102006.28;5095186;28;20463;-51
2023/06/03 10:11:14;;;;;;;2.63;1.10;;;;;;;22.41;25.51;102001.06;5094060;28;20421;-47
2023/06/03 10:13:40;;;;;;;5.00;1.00;;;;;;;22.79;25.03;102007.13;5094024;28;20044;-48
2023/06/03 10:16:14;;;;;;;6.43;1.90;;;;;;;23.25;25.57;102006.09;5094451;28;20028;-50
2023/06/03 10:18:41;;;;;;;2.75;1.20;;;;;;;23.79;23.09;102009.28;5093720;28;20032;-47
2023/06/03 10:21:13;;;;;;;3.38;1.30;;;;;;;24.25;23.50;101992.25;5093850;28;20058;-48
2023/06/03 10:23:42;;;;;;;3.15;1.00;;;;;;;25.19;21.17;102008.84;5093893;28;20034;-48
2023/06/03 10:26:08;;;;;;;4.32;1.08;;;;;;;25.48;20.03;101999.66;5093645;28;20028;-48
2023/06/03 10:28:35;;;;;;;4.55;1.20;;;;;;;25.66;20.99;102005.56;5093600;28;20525;-47
2023/06/03 10:31:03;;;;;;;7.15;1.40;;;;;;;26.25;20.33;102005.53;5094144;28;20032;-46
2023/06/03 10:33:30;;;;;;;6.97;1.17;;;;;;;26.80;20.16;101994.81;5092995;28;20024;-46
2023/06/03 10:36:01;;;;;;;5.68;1.10;;;;;;;27.87;19.92;102004.78;5093934;28;20028;-44
2023/06/03 10:38:27;;;;;;;4.85;1.05;;;;;;;28.25;19.22;101989.72;5093762;28;20032;-47
2023/06/03 10:40:53;;;;;;;2.83;0.70;;;;;;;29.00;18.64;102000.94;5092989;28;20030;-47
2023/06/03 10:43:20;;;;;;;4.38;1.25;;;;;;;29.44;16.95;102006.72;5093461;28;20438;-48
2023/06/03 10:45:45;;;;;;;5.70;1.13;;;;;;;29.41;17.81;102004.13;5093823;28;20047;-46
2023/06/03 10:48:15;;;;;;;4.53;1.20;;;;;;;28.74;17.50;101999.91;5092894;28;20392;-47
2023/06/03 10:50:43;;;;;;;5.45;1.05;;;;;;;28.42;17.19;101999.00;5093340;28;20384;-45
2023/06/03 10:53:36;;;;;;;4.63;0.90;;;;;;;28.58;19.74;102002.97;5093795;28;20028;-45
2023/06/03 10:56:36;;;;;;;4.38;0.90;;;;;;;28.69;18.95;102001.81;5093354;28;20406;-48
2023/06/03 10:59:03;;;;;;;2.25;0.70;;;;;;;28.93;16.98;102002.03;5079868;28;20049;-47
2023/06/03 11:01:47;;;;;;;;;;;;;;;29.62;19.26;102012.34;5093190;28;20047;-45
2023/06/03 11:04:16;;;;;;;2.15;0.90;;;;;;;28.48;17.00;101998.81;5093391;28;20385;-48
2023/06/03 11:06:42;;;;;;;5.65;0.90;;;;;;;29.13;15.77;101997.00;5093449;28;20049;-45
2023/06/03 11:09:09;;;;;;;1.83;0.90;;;;;;;29.36;16.35;102001.66;5092723;28;20091;-48
2023/06/03 11:11:41;;;;;;;4.50;1.33;;;;;;;29.36;16.82;101995.44;5092924;28;20020;-48
2023/06/03 11:14:10;;;;;;;2.15;0.90;;;;;;;28.98;16.85;101992.16;5093223;28;20375;-48
2023/06/03 11:16:57;;;;;;;3.22;0.90;;;;;;;29.51;18.49;102002.94;5092341;28;20081;-48
2023/06/03 11:19:28;;;;;;;1.73;0.90;;;;;;;29.16;17.71;101993.41;5092871;28;20119;-48
2023/06/03 11:21:54;;;;;;;2.67;0.80;;;;;;;28.97;16.21;102001.03;5092754;28;20020;-48
2023/06/03 11:24:38;;;;;;;2.83;0.90;;;;;;;29.73;18.91;101994.28;5092502;28;20028;-49